createdAt,value
2023-04-15T00:00:03.039Z,5.29
2023-04-15T00:02:29.634Z,5.26
2023-04-15T00:04:55.870Z,5.28
2023-04-15T00:07:22.225Z,5.34
2023-04-15T00:09:48.714Z,5.35
2023-04-15T00:12:14.790Z,5.35
2023-04-15T00:14:41.128Z,5.39
2023-04-15T00:17:07.525Z,5.40
2023-04-15T00:19:33.957Z,5.37
2023-04-15T00:22:00.793Z,5.33
2023-04-15T00:24:27.270Z,5.29
2023-04-15T00:26:53.384Z,5.24
2023-04-15T00:29:19.727Z,5.20
2023-04-15T00:31:45.824Z,5.20
2023-04-15T00:34:12.194Z,5.20
2023-04-15T00:36:38.351Z,5.22
2023-04-15T00:39:04.743Z,5.25
2023-04-15T00:41:31.148Z,5.27
2023-04-15T00:43:57.232Z,5.25
2023-04-15T00:46:23.506Z,5.20
2023-04-15T00:48:49.858Z,5.18
2023-04-15T00:51:16.065Z,5.23
2023-04-15T00:53:43.072Z,5.27
2023-04-15T00:56:09.176Z,5.29
2023-04-15T00:58:36.415Z,5.24
2023-04-15T01:01:02.528Z,5.15
2023-04-15T01:03:28.763Z,5.14
2023-04-15T01:05:57.633Z,5.15
2023-04-15T01:08:23.734Z,5.15
2023-04-15T01:10:50.054Z,5.16
2023-04-15T01:13:16.242Z,5.14
2023-04-15T01:15:43.006Z,5.12
2023-04-15T01:18:09.153Z,5.09
2023-04-15T01:20:35.696Z,5.03
2023-04-15T01:23:01.870Z,4.95
2023-04-15T01:25:28.056Z,4.89
2023-04-15T01:27:54.171Z,4.88
2023-04-15T01:30:20.277Z,4.86
2023-04-15T01:32:46.874Z,4.87
2023-04-15T01:35:13.517Z,4.86
2023-04-15T01:37:39.817Z,4.86
2023-04-15T01:40:05.908Z,4.85
2023-04-15T01:42:32.090Z,4.82
2023-04-15T01:44:58.193Z,4.80
2023-04-15T01:47:24.371Z,4.77
2023-04-15T01:49:50.924Z,4.73
2023-04-15T01:52:17.791Z,4.73
2023-04-15T01:54:43.872Z,4.74
2023-04-15T01:57:09.991Z,4.69
2023-04-15T01:59:36.635Z,4.68
2023-04-15T02:02:02.906Z,4.69
2023-04-15T02:04:29.073Z,4.65
2023-04-15T02:06:55.208Z,4.60
2023-04-15T02:09:21.305Z,4.60
2023-04-15T02:11:47.365Z,4.57
2023-04-15T02:14:13.832Z,4.53
2023-04-15T02:16:39.952Z,4.52
2023-04-15T02:19:07.062Z,4.48
2023-04-15T02:21:34.712Z,4.45
2023-04-15T02:24:01.798Z,4.46
2023-04-15T02:26:31.404Z,4.44
2023-04-15T02:28:57.515Z,4.42
2023-04-15T02:31:23.602Z,4.40
2023-04-15T02:33:49.782Z,4.35
2023-04-15T02:36:15.967Z,4.28
2023-04-15T02:38:42.604Z,4.20
2023-04-15T02:41:08.796Z,4.15
2023-04-15T02:43:34.882Z,4.14
2023-04-15T02:46:00.985Z,4.14
2023-04-15T02:48:27.283Z,4.15
2023-04-15T02:50:53.437Z,4.19
2023-04-15T02:53:20.181Z,4.20
2023-04-15T02:55:46.335Z,4.17
2023-04-15T02:58:12.479Z,4.14
2023-04-15T03:00:38.582Z,4.07
2023-04-15T03:03:05.172Z,4.00
2023-04-15T03:05:31.691Z,3.98
2023-04-15T03:07:57.773Z,4.01
2023-04-15T03:10:24.045Z,4.05
2023-04-15T03:12:50.279Z,4.02
2023-04-15T03:15:16.528Z,3.97
2023-04-15T03:17:42.751Z,3.94
2023-04-15T03:20:09.742Z,3.93
2023-04-15T03:22:35.917Z,3.87
2023-04-15T03:25:02.077Z,3.85
2023-04-15T03:27:28.314Z,3.87
2023-04-15T03:29:56.070Z,3.90
2023-04-15T03:32:22.231Z,3.93
2023-04-15T03:34:48.386Z,3.86
2023-04-15T03:37:14.470Z,3.77
2023-04-15T03:39:41.103Z,3.74
2023-04-15T03:42:07.217Z,3.69
2023-04-15T03:44:33.285Z,3.69
2023-04-15T03:46:59.423Z,3.71
2023-04-15T03:49:25.545Z,3.75
2023-04-15T03:51:51.639Z,3.72
2023-04-15T03:54:17.966Z,3.67
2023-04-15T03:56:44.069Z,3.63
2023-04-15T03:59:10.749Z,3.53
2023-04-15T04:01:36.931Z,3.37
2023-04-15T04:04:03.328Z,3.25
2023-04-15T04:06:30.469Z,3.24
2023-04-15T04:08:56.858Z,3.23
2023-04-15T04:11:23.161Z,3.23
2023-04-15T04:13:49.232Z,3.19
2023-04-15T04:16:15.951Z,3.19
2023-04-15T04:18:42.380Z,3.17
2023-04-15T04:21:08.753Z,3.12
2023-04-15T04:23:34.936Z,3.10
2023-04-15T04:26:01.266Z,3.13
2023-04-15T04:28:27.472Z,3.12
2023-04-15T04:30:53.559Z,3.07
2023-04-15T04:33:19.669Z,3.05
2023-04-15T04:35:46.171Z,2.96
2023-04-15T04:38:12.313Z,2.92
2023-04-15T04:40:38.614Z,2.97
2023-04-15T04:43:04.767Z,3.02
2023-04-15T04:45:31.248Z,3.04
2023-04-15T04:47:57.438Z,3.12
2023-04-15T04:50:23.635Z,3.19
2023-04-15T04:52:49.910Z,3.24
2023-04-15T04:55:16.171Z,3.31
2023-04-15T04:57:42.282Z,3.35
2023-04-15T05:00:08.528Z,3.38
2023-04-15T05:02:35.459Z,3.45
2023-04-15T05:05:01.727Z,3.54
2023-04-15T05:07:27.867Z,3.66
2023-04-15T05:09:54.039Z,3.79
2023-04-15T05:12:20.140Z,4.05
2023-04-15T05:14:46.383Z,4.39
2023-04-15T05:17:13.483Z,4.55
2023-04-15T05:19:39.757Z,4.59
2023-04-15T05:22:06.339Z,4.59
2023-04-15T05:24:32.446Z,4.55
2023-04-15T05:26:58.525Z,4.53
2023-04-15T05:29:24.744Z,4.54
2023-04-15T05:31:51.332Z,4.56
2023-04-15T05:34:17.515Z,4.58
2023-04-15T05:36:43.719Z,4.61
2023-04-15T05:39:09.828Z,4.65
2023-04-15T05:41:35.981Z,4.71
2023-04-15T05:44:02.212Z,4.76
2023-04-15T05:46:28.451Z,4.84
2023-04-15T05:48:56.412Z,4.93
2023-04-15T05:51:22.824Z,5.04
2023-04-15T05:53:52.067Z,5.10
2023-04-15T05:56:19.661Z,5.18
2023-04-15T05:58:45.815Z,5.27
2023-04-15T06:01:11.898Z,5.33
2023-04-15T06:03:38.361Z,5.42
2023-04-15T06:06:04.608Z,5.49
2023-04-15T06:08:30.801Z,5.59
2023-04-15T06:10:56.980Z,5.68
2023-04-15T06:13:23.069Z,5.76
2023-04-15T06:15:49.405Z,5.83
2023-04-15T06:18:15.520Z,5.88
2023-04-15T06:20:41.598Z,5.91
2023-04-15T06:23:07.723Z,6.07
2023-04-15T06:25:33.864Z,6.20
2023-04-15T06:28:00.183Z,6.19
2023-04-15T06:30:26.481Z,6.12
2023-04-15T06:32:52.753Z,6.16
2023-04-15T06:35:18.933Z,6.22
2023-04-15T06:37:45.110Z,6.23
2023-04-15T06:40:11.243Z,6.18
2023-04-15T06:42:37.634Z,6.17
2023-04-15T06:45:03.735Z,6.21
2023-04-15T06:47:29.852Z,6.30
2023-04-15T06:49:55.966Z,6.42
2023-04-15T06:52:22.272Z,6.54
2023-04-15T06:54:48.414Z,6.64
2023-04-15T06:57:14.716Z,6.70
2023-04-15T06:59:42.387Z,6.79
2023-04-15T07:02:08.519Z,6.90
2023-04-15T07:04:34.828Z,6.98
2023-04-15T07:07:01.940Z,7.05
2023-04-15T07:09:28.163Z,7.13
2023-04-15T07:11:54.215Z,7.21
2023-04-15T07:14:20.347Z,7.27
2023-04-15T07:16:46.619Z,7.33
2023-04-15T07:19:12.935Z,7.40
2023-04-15T07:21:41.214Z,7.49
2023-04-15T07:24:09.732Z,7.57
2023-04-15T07:26:35.910Z,7.70
2023-04-15T07:29:02.370Z,7.90
2023-04-15T07:31:29.289Z,8.30
2023-04-15T07:33:55.452Z,8.52
2023-04-15T07:36:21.577Z,8.54
2023-04-15T07:38:48.343Z,8.52
2023-04-15T07:41:15.115Z,8.55
2023-04-15T07:43:41.246Z,8.61
2023-04-15T07:46:07.740Z,8.69
2023-04-15T07:48:35.512Z,8.74
2023-04-15T07:51:02.834Z,8.82
2023-04-15T07:53:29.720Z,8.93
2023-04-15T07:55:55.787Z,9.02
2023-04-15T07:58:22.421Z,9.10
2023-04-15T08:00:49.752Z,9.12
2023-04-15T08:03:16.080Z,9.16
2023-04-15T08:05:42.389Z,9.27
2023-04-15T08:08:08.531Z,9.33
2023-04-15T08:10:34.949Z,9.45
2023-04-15T08:13:01.152Z,9.53
2023-04-15T08:15:27.810Z,9.52
2023-04-15T08:17:54.037Z,9.53
2023-04-15T08:20:20.635Z,9.52
2023-04-15T08:22:51.117Z,9.54
2023-04-15T08:25:17.382Z,9.58
2023-04-15T08:27:43.541Z,9.63
2023-04-15T08:30:09.949Z,9.63
2023-04-15T08:32:36.748Z,9.65
2023-04-15T08:35:03.092Z,9.76
2023-04-15T08:37:29.273Z,9.87
2023-04-15T08:39:55.675Z,9.96
2023-04-15T08:42:21.798Z,9.99
2023-04-15T08:44:48.204Z,10.00
2023-04-15T08:47:14.475Z,10.06
2023-04-15T08:49:41.325Z,10.21
2023-04-15T08:52:07.618Z,10.37
2023-04-15T08:54:33.709Z,10.41
2023-04-15T08:56:59.842Z,10.46
2023-04-15T08:59:25.982Z,10.49
2023-04-15T09:01:52.398Z,10.52
2023-04-15T09:04:18.809Z,10.53
2023-04-15T09:06:45.009Z,10.49
2023-04-15T09:09:11.523Z,10.49
2023-04-15T09:11:37.682Z,10.51
2023-04-15T09:14:03.814Z,10.57
2023-04-15T09:16:30.110Z,10.61
2023-04-15T09:18:56.499Z,10.62
2023-04-15T09:21:22.940Z,10.61
2023-04-15T09:23:49.040Z,10.63
2023-04-15T09:26:15.200Z,10.63
2023-04-15T09:28:41.589Z,10.67
2023-04-15T09:31:07.875Z,10.76
2023-04-15T09:33:34.308Z,10.83
2023-04-15T09:36:00.440Z,10.86
2023-04-15T09:38:26.532Z,10.90
2023-04-15T09:40:52.769Z,10.95
2023-04-15T09:43:18.885Z,10.99
2023-04-15T09:45:45.615Z,11.05
2023-04-15T09:48:11.725Z,11.47
2023-04-15T09:50:37.840Z,11.47
2023-04-15T09:53:03.990Z,11.24
2023-04-15T09:55:30.139Z,11.15
2023-04-15T09:57:56.269Z,11.17
2023-04-15T10:00:22.359Z,11.28
2023-04-15T10:02:49.165Z,11.41
2023-04-15T10:05:17.242Z,11.38
2023-04-15T10:07:43.352Z,11.33
2023-04-15T10:10:09.532Z,11.30
2023-04-15T10:12:36.380Z,11.27
2023-04-15T10:15:02.538Z,11.27
2023-04-15T10:17:34.616Z,11.27
2023-04-15T10:20:01.281Z,11.32
2023-04-15T10:22:27.598Z,11.43
2023-04-15T10:24:54.010Z,11.58
2023-04-15T10:27:20.166Z,11.71
2023-04-15T10:29:46.419Z,11.87
2023-04-15T10:32:12.625Z,12.00
2023-04-15T10:34:38.875Z,12.08
2023-04-15T10:37:05.162Z,12.20
2023-04-15T10:39:31.419Z,12.22
2023-04-15T10:41:57.664Z,12.11
2023-04-15T10:44:23.741Z,12.06
2023-04-15T10:46:50.269Z,12.11
2023-04-15T10:49:16.415Z,12.20
2023-04-15T10:51:42.525Z,12.16
2023-04-15T10:54:08.658Z,11.97
2023-04-15T10:56:34.734Z,11.93
2023-04-15T10:59:01.439Z,11.89
2023-04-15T11:01:27.704Z,12.00
2023-04-15T11:03:54.038Z,12.13
2023-04-15T11:06:20.280Z,12.22
2023-04-15T11:08:46.460Z,12.15
2023-04-15T11:11:12.786Z,12.12
2023-04-15T11:13:38.857Z,12.13
2023-04-15T11:16:05.661Z,12.12
2023-04-15T11:18:32.122Z,12.08
2023-04-15T11:20:58.779Z,11.99
2023-04-15T11:23:24.893Z,11.95
2023-04-15T11:25:51.288Z,11.93
2023-04-15T11:28:17.680Z,11.92
2023-04-15T11:30:44.034Z,11.94
2023-04-15T11:33:11.394Z,11.98
2023-04-15T11:35:37.737Z,11.98
2023-04-15T11:38:03.899Z,12.00
2023-04-15T11:40:30.549Z,11.99
2023-04-15T11:42:56.875Z,11.97
2023-04-15T11:45:23.033Z,11.97
2023-04-15T11:47:49.120Z,12.06
2023-04-15T11:50:15.935Z,12.10
2023-04-15T11:52:42.114Z,12.12
2023-04-15T11:55:08.386Z,12.23
2023-04-15T11:57:34.607Z,12.33
2023-04-15T12:00:00.749Z,12.42
2023-04-15T12:02:26.943Z,12.56
2023-04-15T12:04:53.297Z,12.69
2023-04-15T12:07:19.568Z,12.81
2023-04-15T12:09:45.885Z,12.92
2023-04-15T12:12:12.040Z,12.93
2023-04-15T12:14:38.544Z,12.92
2023-04-15T12:17:04.613Z,12.88
2023-04-15T12:19:32.011Z,12.87
2023-04-15T12:22:00.368Z,12.86
2023-04-15T12:24:27.127Z,12.72
2023-04-15T12:26:53.377Z,12.67
2023-04-15T12:29:20.427Z,12.68
2023-04-15T12:31:46.951Z,12.76
2023-04-15T12:34:13.428Z,12.86
2023-04-15T12:36:39.660Z,12.91
2023-04-15T12:39:06.127Z,12.99
2023-04-15T12:41:32.440Z,13.00
2023-04-15T12:43:58.546Z,12.99
2023-04-15T12:46:25.097Z,12.90
2023-04-15T12:48:54.418Z,12.86
2023-04-15T12:51:23.352Z,12.84
2023-04-15T12:53:49.422Z,12.75
2023-04-15T12:56:16.217Z,12.65
2023-04-15T12:58:42.752Z,12.57
2023-04-15T13:01:09.660Z,12.52
2023-04-15T13:03:36.059Z,12.40
2023-04-15T13:06:04.138Z,12.24
2023-04-15T13:08:30.538Z,12.20
2023-04-15T13:10:56.625Z,12.19
2023-04-15T13:13:22.729Z,12.20
2023-04-15T13:15:49.066Z,12.06
2023-04-15T13:18:15.410Z,11.96
2023-04-15T13:20:41.690Z,11.81
2023-04-15T13:23:07.783Z,11.67
2023-04-15T13:25:34.021Z,11.58
2023-04-15T13:28:00.729Z,11.57
2023-04-15T13:30:27.156Z,11.47
2023-04-15T13:32:53.757Z,11.30
2023-04-15T13:35:20.541Z,11.15
2023-04-15T13:37:46.931Z,11.05
2023-04-15T13:40:13.019Z,11.03
2023-04-15T13:42:39.219Z,10.97
2023-04-15T13:45:05.557Z,10.92
2023-04-15T13:47:31.654Z,10.85
2023-04-15T13:49:57.823Z,10.77
2023-04-15T13:52:24.031Z,10.74
2023-04-15T13:55:17.799Z,10.76
2023-04-15T13:57:36.307Z,10.83
2023-04-15T14:00:03.801Z,10.91
2023-04-15T14:02:30.197Z,10.97
2023-04-15T14:04:56.542Z,10.93
2023-04-15T14:07:22.623Z,10.86
2023-04-15T14:09:51.551Z,10.82
2023-04-15T14:12:17.655Z,10.76
2023-04-15T14:14:43.756Z,10.77
2023-04-15T14:17:10.118Z,10.79
2023-04-15T14:19:36.213Z,10.82
2023-04-15T14:22:02.973Z,10.82
2023-04-15T14:24:29.100Z,10.82
2023-04-15T14:26:56.815Z,10.82
2023-04-15T14:29:23.126Z,10.83
2023-04-15T14:32:11.071Z,10.85
2023-04-15T14:34:35.622Z,10.94
2023-04-15T14:37:01.699Z,11.06
2023-04-15T14:39:27.953Z,11.21
2023-04-15T14:41:55.023Z,11.24
2023-04-15T14:44:21.156Z,11.26
2023-04-15T14:46:47.279Z,11.20
2023-04-15T14:49:13.427Z,11.13
2023-04-15T14:51:41.643Z,11.09
2023-04-15T14:54:07.925Z,11.06
2023-04-15T14:56:34.062Z,10.96
2023-04-15T14:59:00.304Z,10.85
2023-04-15T15:01:26.459Z,10.79
2023-04-15T15:03:52.646Z,10.73
2023-04-15T15:06:18.900Z,10.61
2023-04-15T15:08:45.001Z,10.50
2023-04-15T15:11:11.125Z,10.49
2023-04-15T15:13:37.283Z,10.52
2023-04-15T15:16:03.434Z,10.52
2023-04-15T15:18:29.625Z,10.49
2023-04-15T15:20:55.698Z,10.38
2023-04-15T15:23:22.030Z,10.29
2023-04-15T15:25:48.438Z,10.27
2023-04-15T15:28:14.602Z,10.30
2023-04-15T15:30:40.751Z,10.34
2023-04-15T15:33:06.945Z,10.36
2023-04-15T15:35:33.035Z,10.37
2023-04-15T15:37:59.990Z,10.41
2023-04-15T15:40:26.654Z,10.46
2023-04-15T15:42:52.728Z,10.46
2023-04-15T15:45:18.830Z,10.39
2023-04-15T15:47:45.262Z,10.30
2023-04-15T15:50:11.477Z,10.28
2023-04-15T15:52:37.564Z,10.25
2023-04-15T15:55:03.715Z,10.16
2023-04-15T15:57:29.833Z,9.95
2023-04-15T16:00:10.310Z,9.79
2023-04-15T16:03:02.408Z,9.66
2023-04-15T16:05:23.202Z,9.63
2023-04-15T16:07:49.344Z,9.65
2023-04-15T16:10:15.673Z,9.70
2023-04-15T16:12:41.956Z,9.75
2023-04-15T16:15:08.032Z,9.79
2023-04-15T16:17:34.300Z,9.85
2023-04-15T16:20:04.646Z,9.90
2023-04-15T16:22:30.760Z,9.72
2023-04-15T16:24:56.851Z,9.63
2023-04-15T16:27:23.013Z,9.70
2023-04-15T16:29:51.864Z,9.38
2023-04-15T16:32:18.047Z,9.03
2023-04-15T16:34:44.319Z,8.78
2023-04-15T16:37:10.630Z,8.54
2023-04-15T16:39:37.068Z,8.33
2023-04-15T16:42:03.308Z,8.17
2023-04-15T16:44:29.736Z,8.01
2023-04-15T16:46:56.104Z,7.88
2023-04-15T16:49:22.276Z,7.82
2023-04-15T16:51:48.579Z,7.86
2023-04-15T16:54:14.675Z,7.82
2023-04-15T16:56:40.751Z,7.73
2023-04-15T16:59:06.880Z,7.61
2023-04-15T17:01:33.174Z,7.53
2023-04-15T17:03:59.859Z,7.46
2023-04-15T17:06:26.068Z,7.40
2023-04-15T17:08:52.321Z,7.36
2023-04-15T17:11:18.421Z,7.34
2023-04-15T17:13:44.746Z,7.30
2023-04-15T17:16:11.038Z,7.29
2023-04-15T17:18:37.271Z,7.30
2023-04-15T17:21:03.392Z,7.26
2023-04-15T17:23:30.366Z,7.18
2023-04-15T17:25:56.659Z,7.10
2023-04-15T17:28:22.756Z,7.00
2023-04-15T17:30:48.939Z,6.89
2023-04-15T17:33:55.983Z,6.79
2023-04-15T17:36:01.651Z,6.71
2023-04-15T17:38:27.957Z,6.64
2023-04-15T17:40:54.500Z,6.57
2023-04-15T17:43:21.158Z,6.54
2023-04-15T17:45:47.430Z,6.49
2023-04-15T17:48:13.747Z,6.45
2023-04-15T17:50:40.112Z,6.41
2023-04-15T17:53:06.390Z,6.37
2023-04-15T17:55:32.553Z,6.34
2023-04-15T17:57:58.642Z,6.30
2023-04-15T18:00:25.291Z,6.28
2023-04-15T18:02:52.092Z,6.25
2023-04-15T18:05:19.192Z,6.26
2023-04-15T18:07:45.671Z,6.26
2023-04-15T18:10:12.240Z,6.30
2023-04-15T18:12:38.862Z,6.32
2023-04-15T18:15:05.581Z,6.35
2023-04-15T18:17:31.692Z,6.37
2023-04-15T18:19:57.870Z,6.39
2023-04-15T18:22:24.084Z,6.33
2023-04-15T18:24:50.418Z,6.29
2023-04-15T18:27:17.021Z,6.24
2023-04-15T18:29:43.792Z,6.20
2023-04-15T18:32:10.044Z,6.18
2023-04-15T18:34:36.365Z,6.17
2023-04-15T18:37:03.127Z,6.16
2023-04-15T18:39:30.115Z,6.13
2023-04-15T18:41:56.924Z,6.11
2023-04-15T18:44:23.963Z,6.08
2023-04-15T18:46:50.489Z,6.10
2023-04-15T18:49:17.152Z,6.11
2023-04-15T18:51:43.747Z,6.15
2023-04-15T18:54:10.280Z,6.15
2023-04-15T18:56:36.969Z,6.13
2023-04-15T18:59:09.412Z,6.13
2023-04-15T19:01:50.139Z,6.13
2023-04-15T19:04:16.359Z,6.09
2023-04-15T19:06:42.884Z,6.00
2023-04-15T19:09:09.000Z,5.91
2023-04-15T19:11:35.379Z,5.83
2023-04-15T19:14:01.793Z,5.78
2023-04-15T19:16:27.976Z,5.75
2023-04-15T19:18:54.123Z,5.75
2023-04-15T19:21:20.637Z,5.76
2023-04-15T19:23:47.624Z,5.77
2023-04-15T19:26:14.069Z,5.75
2023-04-15T19:28:40.457Z,5.75
2023-04-15T19:31:06.812Z,5.72
2023-04-15T19:33:33.056Z,5.70
2023-04-15T19:35:59.143Z,5.59
2023-04-15T19:38:25.729Z,5.51
2023-04-15T19:40:52.096Z,5.52
2023-04-15T19:43:18.679Z,5.51
2023-04-15T19:45:48.568Z,5.51
2023-04-15T19:48:15.488Z,5.42
2023-04-15T19:50:41.790Z,5.29
2023-04-15T19:53:08.121Z,5.26
2023-04-15T19:55:34.377Z,5.25
2023-04-15T19:58:01.028Z,5.26
2023-04-15T20:00:27.265Z,5.26
2023-04-15T20:02:53.560Z,5.22
2023-04-15T20:05:19.784Z,5.22
2023-04-15T20:07:48.079Z,5.24
2023-04-15T20:10:14.192Z,5.25
2023-04-15T20:12:50.465Z,5.22
2023-04-15T20:15:18.937Z,5.20
2023-04-15T20:17:45.100Z,5.15
2023-04-15T20:20:11.262Z,5.11
2023-04-15T20:22:37.433Z,5.03
2023-04-15T20:25:06.312Z,4.98
2023-04-15T20:27:32.417Z,5.00
2023-04-15T20:29:58.634Z,5.03
2023-04-15T20:32:26.181Z,5.05
2023-04-15T20:34:52.274Z,5.06
2023-04-15T20:37:18.439Z,5.07
2023-04-15T20:39:44.514Z,4.99
2023-04-15T20:42:10.656Z,4.89
2023-04-15T20:44:37.917Z,4.85
2023-04-15T20:47:04.190Z,4.82
2023-04-15T20:49:30.783Z,4.77
2023-04-15T20:51:57.111Z,4.68
2023-04-15T20:54:23.170Z,4.63
2023-04-15T20:56:49.253Z,4.60
2023-04-15T20:59:15.770Z,4.61
2023-04-15T21:01:42.028Z,4.59
2023-04-15T21:04:08.251Z,4.60
2023-04-15T21:06:34.772Z,4.56
2023-04-15T21:09:00.832Z,4.53
2023-04-15T21:11:46.470Z,4.56
2023-04-15T21:14:13.119Z,4.55
2023-04-15T21:16:39.420Z,4.54
2023-04-15T21:19:05.737Z,4.49
2023-04-15T21:21:32.178Z,4.49
2023-04-15T21:23:58.244Z,4.52
2023-04-15T21:26:24.322Z,4.55
2023-04-15T21:28:50.456Z,4.57
2023-04-15T21:31:16.572Z,4.59
2023-04-15T21:33:42.734Z,4.54
2023-04-15T21:36:08.873Z,4.51
2023-04-15T21:38:34.949Z,4.54
2023-04-15T21:41:01.127Z,4.55
2023-04-15T21:43:27.432Z,4.54
2023-04-15T21:46:22.816Z,4.47
2023-04-15T21:48:39.889Z,4.34
2023-04-15T21:51:06.125Z,4.21
2023-04-15T21:53:32.645Z,4.07
2023-04-15T21:55:58.765Z,4.02
2023-04-15T21:58:24.875Z,3.94
2023-04-15T22:00:51.055Z,3.91
2023-04-15T22:03:17.611Z,3.87
2023-04-15T22:05:43.818Z,3.87
2023-04-15T22:11:25.921Z,3.79
2023-04-15T22:13:52.259Z,3.69
2023-04-15T22:16:18.443Z,3.63
2023-04-15T22:18:44.764Z,3.61
2023-04-15T22:21:11.030Z,3.59
2023-04-15T22:23:37.139Z,3.50
2023-04-15T22:26:04.190Z,3.39
2023-04-15T22:28:30.370Z,3.40
2023-04-15T22:30:57.398Z,3.46
2023-04-15T22:33:23.501Z,3.53
2023-04-15T22:35:49.597Z,3.46
2023-04-15T22:38:15.743Z,3.32
2023-04-15T22:40:41.779Z,3.28
2023-04-15T22:43:07.924Z,3.30
2023-04-15T22:45:33.982Z,3.31
2023-04-15T22:48:00.080Z,3.29
2023-04-15T22:50:26.383Z,3.25
2023-04-15T22:52:52.618Z,3.19
2023-04-15T22:55:18.861Z,3.10
2023-04-15T22:57:45.033Z,3.10
2023-04-15T23:00:11.100Z,3.12
2023-04-15T23:02:37.349Z,3.10
2023-04-15T23:05:11.609Z,3.05
2023-04-15T23:07:39.314Z,2.94
2023-04-15T23:10:05.450Z,2.89
2023-04-15T23:12:31.541Z,2.89
2023-04-15T23:14:57.710Z,2.87
2023-04-15T23:17:23.812Z,2.83
2023-04-15T23:19:50.146Z,2.75
2023-04-15T23:22:16.222Z,2.71
2023-04-15T23:24:42.467Z,2.70
2023-04-15T23:27:08.789Z,2.69
2023-04-15T23:29:35.373Z,2.61
2023-04-15T23:32:01.577Z,2.54
2023-04-15T23:34:27.808Z,2.52
2023-04-15T23:36:53.919Z,2.53
2023-04-15T23:39:20.075Z,2.51
2023-04-15T23:41:46.101Z,2.48
2023-04-15T23:44:12.235Z,2.48
2023-04-15T23:46:38.402Z,2.49
2023-04-15T23:49:04.595Z,2.45
2023-04-15T23:51:30.781Z,2.38
2023-04-15T23:53:56.947Z,2.30
2023-04-15T23:56:23.013Z,2.26
2023-04-15T23:58:49.584Z,2.27
